Time;durP1;ratioP1;P1;durP2;ratioP2;P2;SDS_P1;SDS_P2;PMS_P1;PMS_P2;Temp;Humidity;BMP_temperature;BMP_pressure;BME280_temperature;BME280_humidity;BME280_pressure;Samples;Min_cycle;Max_cycle;Signal;HPM_P1;HPM_P2
2024/01/13 00:00:49;;;;;;;26.00;12.00;;;;;;;-17.67;97.92;138018.58;106929;1266;25344;-57
2024/01/13 00:03:35;;;;;;;30.00;13.80;;;;;;;-17.73;98.63;138004.41;106927;1266;25394;-55
2024/01/13 00:06:21;;;;;;;32.10;12.30;;;;;;;-17.80;99.73;137989.55;106938;1274;25497;-56
2024/01/13 00:09:08;;;;;;;27.30;13.80;;;;;;;-17.84;100.00;137979.08;106975;1266;25492;-56
2024/01/13 00:11:53;;;;;;;28.60;12.90;;;;;;;-17.85;100.00;137977.34;106977;1270;25593;-56
2024/01/13 00:14:39;;;;;;;30.90;11.30;;;;;;;-17.88;100.00;137968.78;106989;1272;25418;-57
2024/01/13 00:17:25;;;;;;;27.30;13.10;;;;;;;-17.94;100.00;137955.11;107085;1266;25436;-56
2024/01/13 00:20:11;;;;;;;32.20;12.40;;;;;;;-18.01;100.00;137938.75;107269;1266;25491;-56
2024/01/13 00:22:56;;;;;;;30.70;11.60;;;;;;;-18.01;100.00;137938.28;107160;1263;25491;-56
2024/01/13 00:25:42;;;;;;;18.30;10.00;;;;;;;-17.95;100.00;137953.41;107069;1267;25421;-55
2024/01/13 00:28:28;;;;;;;26.60;12.60;;;;;;;-17.93;100.00;137956.34;107087;1266;25356;-57
2024/01/13 00:31:21;;;;;;;20.00;9.50;;;;;;;-17.85;100.00;137976.86;107057;1263;22675;-55
2024/01/13 00:34:07;;;;;;;25.30;11.20;;;;;;;-17.83;100.00;137981.25;106975;1266;25335;-56
2024/01/13 00:36:53;;;;;;;28.50;11.40;;;;;;;-17.78;100.00;137993.42;107069;1272;25363;-55
2024/01/13 00:39:38;;;;;;;19.80;9.10;;;;;;;-17.71;100.00;138008.83;107061;1266;25531;-58
2024/01/13 00:42:24;;;;;;;26.10;10.90;;;;;;;-17.69;100.00;138013.20;107224;1266;25394;-56
2024/01/13 00:45:09;;;;;;;20.70;9.30;;;;;;;-17.75;100.00;138001.97;107063;1263;25344;-58
2024/01/13 00:47:56;;;;;;;20.10;8.60;;;;;;;-17.76;100.00;137999.28;107101;1266;25414;-57
2024/01/13 00:50:42;;;;;;;18.50;8.50;;;;;;;-17.76;100.00;137997.33;107025;1272;25341;-55
2024/01/13 00:53:28;;;;;;;15.70;8.00;;;;;;;-17.76;100.00;137998.80;107119;1274;25539;-55
2024/01/13 00:56:13;;;;;;;16.20;6.90;;;;;;;-17.77;100.00;137995.84;107153;1274;25650;-54
2024/01/13 00:58:59;;;;;;;15.50;7.10;;;;;;;-17.81;100.00;137986.61;107054;1266;25446;-56
2024/01/13 01:01:45;;;;;;;18.60;7.60;;;;;;;-17.85;100.00;137976.84;107142;1270;25439;-55
2024/01/13 01:04:30;;;;;;;31.10;8.50;;;;;;;-17.83;100.00;137980.28;107177;1265;23340;-58
2024/01/13 01:07:16;;;;;;;18.60;7.70;;;;;;;-17.81;100.00;137986.13;107029;1269;25518;-55
2024/01/13 01:10:02;;;;;;;20.20;7.90;;;;;;;-17.77;100.00;137995.14;107065;1261;25372;-55
2024/01/13 01:12:47;;;;;;;16.80;6.80;;;;;;;-17.77;100.00;137995.14;107236;1257;25344;-56
2024/01/13 01:15:33;;;;;;;15.50;8.00;;;;;;;-17.80;100.00;137988.56;107090;1266;25414;-55
2024/01/13 01:18:18;;;;;;;18.60;8.00;;;;;;;-17.83;100.00;137980.53;107141;1270;25423;-54
2024/01/13 01:21:15;;;;;;;17.50;8.40;;;;;;;-17.81;100.00;137985.91;107060;1263;25487;-55
2024/01/13 01:24:04;;;;;;;22.50;8.30;;;;;;;-17.74;100.00;138003.92;107138;1275;25439;-56
2024/01/13 01:26:50;;;;;;;23.30;8.00;;;;;;;-17.70;100.00;138012.25;107167;1263;25408;-55
2024/01/13 01:29:36;;;;;;;15.80;7.70;;;;;;;-17.71;100.00;138010.03;107002;1264;25357;-56
2024/01/13 01:32:21;;;;;;;18.30;7.90;;;;;;;-17.71;100.00;138009.78;107044;1270;25424;-57
2024/01/13 01:35:07;;;;;;;16.60;7.10;;;;;;;-17.70;100.00;138012.47;107101;1266;22567;-56
2024/01/13 01:37:53;;;;;;;16.30;7.50;;;;;;;-17.66;100.00;138021.28;106804;1275;25533;-56
2024/01/13 01:40:40;;;;;;;19.30;8.10;;;;;;;-17.69;100.00;138013.20;106918;1270;25376;-56
2024/01/13 01:43:25;;;;;;;17.00;8.90;;;;;;;-17.77;100.00;137996.09;106919;1275;25427;-55
2024/01/13 01:46:17;;;;;;;17.80;8.10;;;;;;;-17.76;100.00;137998.05;106935;1272;25362;-56
2024/01/13 01:49:03;;;;;;;21.70;7.70;;;;;;;-17.78;100.00;137993.91;106971;1266;25347;-55
2024/01/13 01:51:50;;;;;;;15.80;7.40;;;;;;;-17.72;100.00;138008.08;106990;1266;25344;-54
2024/01/13 01:54:35;;;;;;;20.80;8.80;;;;;;;-17.66;100.00;138019.78;106913;1269;25434;-56
2024/01/13 01:57:22;;;;;;;18.20;9.00;;;;;;;-17.64;100.00;138025.41;106931;1275;25398;-56
2024/01/13 02:00:09;;;;;;;20.60;9.90;;;;;;;-17.57;100.00;138042.77;106916;1266;25561;-56
2024/01/13 02:02:57;;;;;;;19.70;8.30;;;;;;;-17.53;100.00;138052.05;106929;1270;25385;-55
2024/01/13 02:05:43;;;;;;;19.90;8.80;;;;;;;-17.50;100.00;138060.59;106934;1266;25348;-62
2024/01/13 02:08:29;;;;;;;20.10;9.20;;;;;;;-17.53;100.00;138051.81;107139;1266;25873;-56
2024/01/13 02:11:25;;;;;;;23.30;9.40;;;;;;;-17.69;100.00;138014.45;107081;1266;25338;-56
2024/01/13 02:14:10;;;;;;;19.60;9.50;;;;;;;-17.73;100.00;138004.91;107136;1266;25371;-57
2024/01/13 02:16:57;;;;;;;17.80;8.60;;;;;;;-17.66;100.00;138021.00;107075;1257;25369;-55
2024/01/13 02:19:43;;;;;;;23.50;9.90;;;;;;;-17.70;100.00;138011.25;107120;1266;23189;-56
2024/01/13 02:22:28;;;;;;;25.10;9.70;;;;;;;-17.73;100.00;138004.66;107097;1267;25354;-58
2024/01/13 02:25:16;;;;;;;24.80;11.40;;;;;;;-17.74;100.00;138004.16;107076;1274;25359;-54
2024/01/13 02:28:02;;;;;;;17.80;9.20;;;;;;;-17.83;100.00;137981.75;107071;1266;25362;-55
2024/01/13 02:30:47;;;;;;;21.30;9.60;;;;;;;-17.88;100.00;137970.02;107135;1272;25356;-55
2024/01/13 02:33:33;;;;;;;23.60;9.20;;;;;;;-17.88;100.00;137969.03;106997;1263;25334;-55
2024/01/13 02:36:18;;;;;;;18.90;8.00;;;;;;;-17.88;100.00;137968.06;107017;1273;25541;-55
2024/01/13 02:39:04;;;;;;;21.30;9.70;;;;;;;-17.90;100.00;137963.91;106958;1269;25389;-55
2024/01/13 02:41:49;;;;;;;20.40;8.50;;;;;;;-17.90;100.00;137964.16;106998;1267;25362;-55
2024/01/13 02:44:35;;;;;;;19.70;9.30;;;;;;;-17.94;100.00;137955.36;106992;1274;25335;-54
2024/01/13 02:47:28;;;;;;;18.20;8.80;;;;;;;-17.92;100.00;137958.78;106996;1264;25526;-55
2024/01/13 02:50:14;;;;;;;19.40;8.50;;;;;;;-17.86;100.00;137974.66;107007;1266;25334;-57
2024/01/13 02:52:59;;;;;;;20.60;9.80;;;;;;;-17.82;100.00;137982.73;106989;1274;25356;-56
2024/01/13 02:55:45;;;;;;;22.10;10.40;;;;;;;-17.82;100.00;137983.94;106959;1275;25404;-57
2024/01/13 02:58:31;;;;;;;25.90;10.30;;;;;;;-17.79;100.00;137991.00;106957;1274;25353;-56
2024/01/13 03:01:32;;;;;;;21.20;10.10;;;;;;;-17.70;100.00;138010.75;106973;1266;25383;-55
2024/01/13 03:04:18;;;;;;;21.00;9.10;;;;;;;-17.62;100.00;138032.25;106922;1275;25411;-57
2024/01/13 03:07:04;;;;;;;18.50;8.40;;;;;;;-17.54;100.00;138050.83;106930;1266;25346;-55
2024/01/13 03:09:49;;;;;;;24.00;10.70;;;;;;;-17.55;100.00;138047.42;106936;1274;25348;-55
2024/01/13 03:12:35;;;;;;;23.70;10.50;;;;;;;-17.62;100.00;138031.53;106950;1276;25353;-57
2024/01/13 03:15:21;;;;;;;23.70;10.00;;;;;;;-17.57;100.00;138042.03;106948;1267;25414;-55
2024/01/13 03:18:07;;;;;;;27.00;10.80;;;;;;;-17.52;100.00;138054.50;106944;1275;25422;-57
2024/01/13 03:20:53;;;;;;;23.20;10.00;;;;;;;-17.46;100.00;138069.89;106969;1276;25353;-57
2024/01/13 03:23:39;;;;;;;22.50;11.20;;;;;;;-17.36;100.00;138093.59;106978;1273;25372;-55
2024/01/13 03:26:24;;;;;;;25.40;9.80;;;;;;;-17.32;100.00;138104.11;107059;1256;25366;-56
2024/01/13 03:29:10;;;;;;;23.00;10.00;;;;;;;-17.37;100.00;138092.64;107134;1270;23223;-58
2024/01/13 03:31:55;;;;;;;25.00;10.50;;;;;;;-17.39;100.00;138086.77;107164;1263;25350;-56
2024/01/13 03:34:40;;;;;;;24.20;9.50;;;;;;;-17.38;100.00;138087.47;107266;1263;24233;-56
2024/01/13 03:37:26;;;;;;;20.30;8.70;;;;;;;-17.39;100.00;138085.55;107061;1267;25328;-55
2024/01/13 03:40:12;;;;;;;23.10;10.90;;;;;;;-17.45;100.00;138072.59;107065;1274;25494;-55
2024/01/13 03:42:58;;;;;;;24.00;9.90;;;;;;;-17.39;100.00;138087.23;107133;1266;25328;-58
2024/01/13 03:45:43;;;;;;;26.40;9.80;;;;;;;-17.37;100.00;138092.39;107240;1263;22538;-57
2024/01/13 03:48:28;;;;;;;22.70;10.40;;;;;;;-17.35;100.00;138095.80;107079;1273;25356;-55
2024/01/13 03:51:16;;;;;;;28.30;11.00;;;;;;;-17.26;100.00;138117.80;107074;1264;25705;-55
2024/01/13 03:54:01;;;;;;;18.80;9.10;;;;;;;-17.15;100.00;138144.19;107127;1270;25405;-54
2024/01/13 03:56:47;;;;;;;21.10;9.20;;;;;;;-17.10;100.00;138155.42;107054;1268;25350;-56
2024/01/13 03:59:33;;;;;;;18.90;9.10;;;;;;;-17.16;100.00;138141.02;107211;1266;25420;-55
2024/01/13 04:02:18;;;;;;;17.70;8.30;;;;;;;-17.21;100.00;138128.05;107044;1264;25337;-56
2024/01/13 04:05:04;;;;;;;20.60;9.30;;;;;;;-17.26;100.00;138116.83;107021;1266;25518;-56
2024/01/13 04:07:50;;;;;;;18.80;9.30;;;;;;;-17.20;100.00;138132.20;107130;1264;22530;-55
2024/01/13 04:10:37;;;;;;;16.50;8.30;;;;;;;-17.20;100.00;138130.25;107059;1267;25407;-57
2024/01/13 04:13:24;;;;;;;20.70;9.70;;;;;;;-17.24;100.00;138120.47;107124;1267;23107;-54
2024/01/13 04:16:10;;;;;;;20.20;10.10;;;;;;;-17.22;100.00;138127.09;107139;1267;25382;-54
2024/01/13 04:18:56;;;;;;;21.50;8.50;;;;;;;-17.30;100.00;138108.27;107133;1273;25359;-59
2024/01/13 04:21:42;;;;;;;19.60;8.30;;;;;;;-17.25;100.00;138119.25;107250;1254;25411;-57
2024/01/13 04:24:28;;;;;;;23.50;9.00;;;;;;;-17.27;100.00;138113.63;107100;1261;25340;-58
2024/01/13 04:27:14;;;;;;;19.00;9.40;;;;;;;-17.19;100.00;138133.19;107100;1264;22525;-54
2024/01/13 04:29:59;;;;;;;18.60;9.70;;;;;;;-17.16;100.00;138141.27;107055;1266;25415;-55
2024/01/13 04:32:45;;;;;;;13.90;6.30;;;;;;;-17.03;100.00;138172.30;106989;1273;25365;-54
2024/01/13 04:35:31;;;;;;;17.20;7.80;;;;;;;-17.04;100.00;138169.36;107073;1266;25329;-55
2024/01/13 04:38:17;;;;;;;16.80;6.50;;;;;;;-17.03;100.00;138170.84;107250;1264;24212;-57
2024/01/13 04:41:02;;;;;;;21.80;9.10;;;;;;;-17.03;100.00;138171.59;107077;1261;26641;-59
2024/01/13 04:43:48;;;;;;;17.40;8.50;;;;;;;-17.01;100.00;138177.92;107072;1267;25494;-60
2024/01/13 04:46:35;;;;;;;25.40;8.60;;;;;;;-16.99;100.00;138183.08;107123;1268;25406;-58
2024/01/13 04:49:20;;;;;;;23.80;9.40;;;;;;;-17.00;100.00;138179.16;107397;1260;25394;-57
2024/01/13 04:52:06;;;;;;;20.90;8.40;;;;;;;-17.04;100.00;138169.38;107125;1272;25494;-54
2024/01/13 04:54:51;;;;;;;19.00;9.40;;;;;;;-17.12;100.00;138151.03;107100;1259;22652;-56
2024/01/13 04:57:36;;;;;;;18.60;6.90;;;;;;;-17.13;100.00;138147.86;107140;1264;25328;-58
2024/01/13 05:00:22;;;;;;;23.20;7.40;;;;;;;-17.07;100.00;138162.77;107056;1262;25799;-52
2024/01/13 05:03:08;;;;;;;16.40;7.70;;;;;;;-17.12;100.00;138151.03;106869;1267;25400;-59
2024/01/13 05:05:54;;;;;;;15.30;7.20;;;;;;;-17.13;100.00;138148.59;107110;1263;22549;-61
2024/01/13 05:08:40;;;;;;;17.70;8.80;;;;;;;-17.07;100.00;138162.53;107112;1270;23293;-57
2024/01/13 05:11:26;;;;;;;24.20;9.00;;;;;;;-17.01;100.00;138176.95;107092;1270;25450;-58
2024/01/13 05:14:11;;;;;;;16.40;7.50;;;;;;;-16.91;100.00;138201.64;107083;1260;22523;-55
2024/01/13 05:16:57;;;;;;;14.50;8.20;;;;;;;-16.93;100.00;138195.78;107140;1264;25359;-54
2024/01/13 05:19:42;;;;;;;15.80;7.50;;;;;;;-17.03;100.00;138173.03;107006;1270;26042;-59
2024/01/13 05:22:28;;;;;;;17.80;8.80;;;;;;;-17.13;100.00;138149.56;107085;1267;25335;-58
2024/01/13 05:25:14;;;;;;;22.30;7.70;;;;;;;-17.14;100.00;138145.91;107061;1260;25408;-59
2024/01/13 05:28:01;;;;;;;14.60;6.70;;;;;;;-17.14;100.00;138146.64;107121;1267;25343;-60
2024/01/13 05:30:47;;;;;;;19.50;8.70;;;;;;;-17.15;100.00;138142.97;107071;1264;25392;-57
2024/01/13 05:33:32;;;;;;;14.40;7.00;;;;;;;-17.20;100.00;138131.48;106986;1266;96890;-56
2024/01/13 05:36:18;;;;;;;14.40;7.30;;;;;;;-17.19;100.00;138133.92;107076;1273;25338;-60
2024/01/13 05:39:04;;;;;;;16.00;8.20;;;;;;;-17.14;100.00;138146.66;107085;1267;22833;-57
2024/01/13 05:41:50;;;;;;;17.20;8.30;;;;;;;-17.11;100.00;138152.97;106931;1267;25446;-58
2024/01/13 05:44:35;;;;;;;18.50;8.60;;;;;;;-17.13;100.00;138148.34;106982;1264;25411;-54
2024/01/13 05:47:21;;;;;;;17.20;8.10;;;;;;;-17.10;100.00;138155.92;107007;1264;25494;-59
2024/01/13 05:50:09;;;;;;;22.00;9.10;;;;;;;-17.03;100.00;138173.03;107018;1267;25397;-56
2024/01/13 05:52:56;;;;;;;19.70;7.90;;;;;;;-17.02;100.00;138173.28;107001;1266;25372;-58
2024/01/13 05:55:43;;;;;;;15.80;7.60;;;;;;;-17.04;100.00;138168.64;106985;1266;25328;-57
2024/01/13 05:58:28;;;;;;;16.20;8.50;;;;;;;-17.05;100.00;138166.17;106967;1265;25401;-56
2024/01/13 06:01:14;;;;;;;16.90;7.60;;;;;;;-17.04;100.00;138168.64;106975;1262;25475;-52
2024/01/13 06:03:59;;;;;;;19.10;9.00;;;;;;;-17.05;100.00;138167.41;106991;1263;25408;-54
2024/01/13 06:06:45;;;;;;;18.10;8.00;;;;;;;-17.02;100.00;138173.28;106971;1273;25428;-53
2024/01/13 06:09:32;;;;;;;23.40;11.60;;;;;;;-17.02;100.00;138174.02;106868;1264;25359;-56
2024/01/13 06:12:17;;;;;;;18.60;9.50;;;;;;;-17.01;100.00;138176.95;106770;1264;25353;-56
2024/01/13 06:15:04;;;;;;;19.00;9.50;;;;;;;-17.01;100.00;138177.92;106940;1266;25487;-57
2024/01/13 06:17:50;;;;;;;21.40;9.90;;;;;;;-16.99;100.00;138180.84;106991;1264;25347;-55
2024/01/13 06:20:35;;;;;;;20.70;9.40;;;;;;;-16.96;100.00;138188.67;106970;1260;25494;-58
2024/01/13 06:23:21;;;;;;;23.10;9.70;;;;;;;-16.98;100.00;138184.05;106953;1262;25339;-57
2024/01/13 06:26:07;;;;;;;25.70;10.30;;;;;;;-17.00;100.00;138178.42;106969;1264;25373;-60
2024/01/13 06:28:52;;;;;;;23.40;11.00;;;;;;;-17.01;100.00;138177.92;106849;1266;25484;-55
2024/01/13 06:31:37;;;;;;;26.40;12.30;;;;;;;-16.99;100.00;138183.06;107129;1260;22526;-57
2024/01/13 06:34:23;;;;;;;24.80;11.60;;;;;;;-16.96;100.00;138188.45;107039;1266;25283;-54
2024/01/13 06:37:09;;;;;;;26.60;9.90;;;;;;;-16.98;100.00;138185.28;107146;1266;25334;-58
2024/01/13 06:39:58;;;;;;;24.00;10.30;;;;;;;-16.99;100.00;138181.09;107083;1262;25412;-57
2024/01/13 06:42:43;;;;;;;22.00;10.60;;;;;;;-16.96;100.00;138189.17;107097;1273;25341;-59
2024/01/13 06:45:29;;;;;;;23.00;11.00;;;;;;;-16.95;100.00;138192.59;107098;1267;25698;-61
2024/01/13 06:48:14;;;;;;;23.30;12.10;;;;;;;-16.93;100.00;138195.53;107094;1261;23357;-56
2024/01/13 06:51:00;;;;;;;23.00;10.50;;;;;;;-16.90;100.00;138204.09;107075;1261;22544;-57
2024/01/13 06:53:46;;;;;;;23.20;11.80;;;;;;;-16.81;100.00;138224.86;107099;1256;25338;-61
2024/01/13 06:56:31;;;;;;;30.50;13.20;;;;;;;-16.75;100.00;138238.28;107266;1263;25370;-62
2024/01/13 06:59:17;;;;;;;29.30;14.30;;;;;;;-16.70;100.00;138251.72;106947;1267;25487;-56
2024/01/13 07:02:03;;;;;;;26.70;12.40;;;;;;;-16.70;100.00;138249.77;107196;1269;22542;-58
2024/01/13 07:04:50;;;;;;;28.40;12.30;;;;;;;-16.78;100.00;138232.20;107123;1254;25348;-59
2024/01/13 07:07:36;;;;;;;24.00;10.10;;;;;;;-16.82;100.00;138222.42;107179;1267;25411;-56
2024/01/13 07:10:22;;;;;;;23.90;12.00;;;;;;;-16.84;100.00;138217.80;107275;1266;22174;-57
2024/01/13 07:13:07;;;;;;;23.10;11.10;;;;;;;-16.80;100.00;138226.09;107107;1269;23930;-61
2024/01/13 07:15:53;;;;;;;24.60;12.00;;;;;;;-16.80;100.00;138225.34;107056;1266;25414;-59
2024/01/13 07:18:39;;;;;;;26.00;13.70;;;;;;;-16.74;100.00;138241.95;107633;1264;25410;-54
2024/01/13 07:21:25;;;;;;;29.30;13.50;;;;;;;-16.73;100.00;138242.44;107189;1266;25350;-54
2024/01/13 07:24:11;;;;;;;28.20;12.90;;;;;;;-16.76;100.00;138236.83;107175;1261;25354;-58
2024/01/13 07:26:57;;;;;;;32.90;16.30;;;;;;;-16.81;100.00;138223.88;107203;1266;22533;-53
2024/01/13 07:29:42;;;;;;;36.00;15.50;;;;;;;-16.79;100.00;138230.23;107180;1264;25384;-56
2024/01/13 07:32:40;;;;;;;37.50;16.90;;;;;;;-16.75;100.00;138239.25;107161;1266;25452;-58
2024/01/13 07:35:26;;;;;;;37.40;16.20;;;;;;;-16.70;100.00;138249.75;107130;1267;25372;-60
2024/01/13 07:38:12;;;;;;;37.70;16.00;;;;;;;-16.66;100.00;138261.28;107125;1263;25358;-56
2024/01/13 07:40:58;;;;;;;30.50;15.00;;;;;;;-16.63;100.00;138267.13;106974;1273;24342;-59
2024/01/13 07:43:47;;;;;;;28.70;13.90;;;;;;;-16.60;100.00;138275.22;106956;1264;25350;-54
2024/01/13 07:46:40;;;;;;;36.50;17.40;;;;;;;-16.49;100.00;138301.88;107029;1264;25423;-56
2024/01/13 07:49:26;;;;;;;28.60;13.00;;;;;;;-16.32;100.00;138340.50;107185;1267;25423;-55
2024/01/13 07:52:11;;;;;;;35.40;15.40;;;;;;;-16.24;100.00;138361.55;107242;1266;25442;-56
2024/01/13 07:54:57;;;;;;;30.20;14.20;;;;;;;-16.11;100.00;138392.63;106987;1261;25337;-57
2024/01/13 07:57:42;;;;;;;27.50;13.20;;;;;;;-15.96;100.00;138428.59;107160;1264;23839;-58
2024/01/13 08:00:28;;;;;;;25.70;12.80;;;;;;;-15.97;100.00;138425.67;106932;1266;25475;-56
2024/01/13 08:03:14;;;;;;;28.40;14.40;;;;;;;-15.99;100.00;138421.75;106984;1263;25334;-58
2024/01/13 08:06:00;;;;;;;35.90;16.40;;;;;;;-15.81;100.00;138463.84;106991;1265;25356;-58
2024/01/13 08:08:46;;;;;;;27.00;13.70;;;;;;;-15.64;100.00;138504.45;106981;1273;25338;-57
2024/01/13 08:11:32;;;;;;;26.70;13.80;;;;;;;-15.62;100.00;138509.83;106995;1265;25459;-55
2024/01/13 08:14:25;;;;;;;27.10;14.30;;;;;;;-15.56;100.00;138523.55;106995;1266;25538;-57
2024/01/13 08:17:11;;;;;;;33.60;14.70;;;;;;;-15.45;100.00;138549.98;106934;1260;25423;-57
2024/01/13 08:19:57;;;;;;;28.80;14.30;;;;;;;-15.36;100.00;138571.30;106993;1260;25344;-57
2024/01/13 08:22:43;;;;;;;28.70;13.60;;;;;;;-15.32;100.00;138580.13;106965;1260;25484;-57
2024/01/13 08:25:29;;;;;;;34.10;13.20;;;;;;;-15.30;100.00;138585.73;106964;1261;25551;-56
2024/01/13 08:28:15;;;;;;;30.50;11.30;;;;;;;-15.16;100.00;138618.81;107046;1260;25411;-55
2024/01/13 08:31:00;;;;;;;24.80;12.10;;;;;;;-15.19;100.00;138611.22;107127;1264;24308;-58
2024/01/13 08:33:46;;;;;;;22.90;11.90;;;;;;;-15.36;100.00;138571.05;107260;1265;25347;-57
2024/01/13 08:36:32;;;;;;;21.80;11.40;;;;;;;-15.42;100.00;138557.83;107097;1266;25488;-56
2024/01/13 08:39:18;;;;;;;26.70;12.80;;;;;;;-15.47;100.00;138545.09;107077;1260;25485;-55
2024/01/13 08:42:04;;;;;;;26.20;12.90;;;;;;;-15.44;100.00;138552.45;107091;1263;25388;-55
2024/01/13 08:44:50;;;;;;;25.90;13.60;;;;;;;-15.37;100.00;138568.84;107182;1263;25920;-57
2024/01/13 08:47:36;;;;;;;27.00;14.90;;;;;;;-15.20;100.00;138609.48;107089;1263;25372;-59
2024/01/13 08:50:22;;;;;;;28.10;15.00;;;;;;;-15.00;100.00;138656.53;107139;1261;25415;-58
2024/01/13 08:53:08;;;;;;;30.50;14.90;;;;;;;-14.88;100.00;138686.69;107081;1263;25516;-56
2024/01/13 08:55:54;;;;;;;28.70;15.20;;;;;;;-14.97;100.00;138663.88;107133;1266;24355;-54
2024/01/13 08:58:39;;;;;;;30.10;14.80;;;;;;;-15.01;100.00;138654.58;107108;1272;25369;-54
2024/01/13 09:01:25;;;;;;;33.00;15.70;;;;;;;-14.95;100.00;138670.00;107131;1266;23147;-56
2024/01/13 09:04:23;;;;;;;32.70;16.40;;;;;;;-14.69;100.00;138731.98;107124;1264;25385;-54
2024/01/13 09:07:08;;;;;;;38.20;17.30;;;;;;;-14.54;100.00;138767.03;107154;1267;25373;-55
2024/01/13 09:09:54;;;;;;;32.80;15.30;;;;;;;-14.34;100.00;138816.28;106960;1267;22580;-57
2024/01/13 09:12:40;;;;;;;30.70;16.10;;;;;;;-14.14;100.00;138862.61;107123;1263;25338;-55
2024/01/13 09:15:26;;;;;;;39.80;18.10;;;;;;;-14.03;100.00;138889.09;107069;1266;25465;-58
2024/01/13 09:18:11;;;;;;;31.10;15.00;;;;;;;-13.92;100.00;138915.84;107019;1261;25462;-57
2024/01/13 09:21:01;;;;;;;33.90;16.00;;;;;;;-13.79;100.00;138948.22;107119;1266;25414;-55
2024/01/13 09:23:47;;;;;;;45.90;18.10;;;;;;;-13.97;100.00;138904.80;107201;1266;22911;-58
2024/01/13 09:26:33;;;;;;;35.50;16.70;;;;;;;-13.83;100.00;138937.19;107132;1266;25338;-55
2024/01/13 09:29:19;;;;;;;41.00;16.80;;;;;;;-13.69;100.00;138970.53;107154;1263;25449;-56
2024/01/13 09:32:07;;;;;;;43.40;20.30;;;;;;;-13.81;100.00;138942.55;107124;1264;25450;-59
2024/01/13 09:34:52;;;;;;;46.50;20.10;;;;;;;-14.15;100.00;138861.63;107114;1264;25386;-54
2024/01/13 09:37:38;;;;;;;37.30;18.20;;;;;;;-14.37;100.00;138808.44;107046;1263;25347;-58
2024/01/13 09:40:25;;;;;;;37.90;17.40;;;;;;;-14.44;100.00;138791.77;106967;1266;25424;-57
2024/01/13 09:43:22;;;;;;;35.90;18.50;;;;;;;-14.48;100.00;138782.69;106969;1263;25419;-59
2024/01/13 09:46:08;;;;;;;37.60;18.00;;;;;;;-14.33;100.00;138818.47;106787;1263;25353;-55
2024/01/13 09:48:54;;;;;;;37.30;18.60;;;;;;;-14.18;100.00;138853.78;107280;1266;25406;-71
2024/01/13 09:51:41;;;;;;;42.50;20.20;;;;;;;-14.17;100.00;138855.00;106957;1266;25468;-60
2024/01/13 09:54:28;;;;;;;37.00;19.20;;;;;;;-14.20;100.00;138849.41;107126;1261;25328;-57
2024/01/13 09:57:15;;;;;;;46.90;19.90;;;;;;;-14.03;100.00;138889.83;107225;1271;25344;-53
2024/01/13 10:00:02;;;;;;;44.90;20.70;;;;;;;-13.92;100.00;138915.84;107364;1268;25353;-57
2024/01/13 10:02:50;;;;;;;36.90;19.80;;;;;;;-13.84;100.00;138935.45;107057;1275;25497;-57
2024/01/13 10:05:36;;;;;;;43.80;19.50;;;;;;;-13.64;100.00;138981.83;107108;1269;25373;-54
2024/01/13 10:08:30;;;;;;;33.20;19.50;;;;;;;-13.46;100.00;139026.00;107239;1269;25362;-59
2024/01/13 10:11:15;;;;;;;34.10;17.70;;;;;;;-13.17;100.00;139096.14;107124;1275;25393;-56
2024/01/13 10:14:14;;;;;;;34.60;18.10;;;;;;;-12.80;100.00;139184.28;107269;1257;25488;-57
2024/01/13 10:17:04;;;;;;;30.40;16.60;;;;;;;-12.57;100.00;139240.72;107109;1266;25372;-59
2024/01/13 10:19:50;;;;;;;30.80;17.10;;;;;;;-12.49;100.00;139259.91;107270;1266;25403;-55
2024/01/13 10:22:37;;;;;;;31.70;17.90;;;;;;;-12.54;100.00;139248.11;106985;1266;25339;-54
2024/01/13 10:25:22;;;;;;;38.40;18.40;;;;;;;-12.52;100.00;139253.27;106982;1275;25356;-56
2024/01/13 10:28:10;;;;;;;35.70;17.50;;;;;;;-12.51;100.00;139254.75;106948;1265;25354;-57
2024/01/13 10:30:56;;;;;;;35.60;18.40;;;;;;;-12.55;100.00;139244.92;106962;1266;25347;-56
2024/01/13 10:33:47;;;;;;;33.50;18.40;;;;;;;-12.59;100.00;139236.33;107138;1272;25414;-58
2024/01/13 10:36:33;;;;;;;39.90;19.40;;;;;;;-12.59;100.00;139234.34;106977;1266;25453;-55
2024/01/13 10:39:18;;;;;;;33.30;18.00;;;;;;;-12.59;100.00;139234.86;107005;1266;25346;-58
2024/01/13 10:42:13;;;;;;;40.90;20.50;;;;;;;-12.51;100.00;139254.75;106989;1275;25806;-55
2024/01/13 10:45:03;;;;;;;37.00;19.10;;;;;;;-12.45;100.00;139268.50;106996;1264;25468;-58
2024/01/13 10:47:53;;;;;;;37.10;19.70;;;;;;;-12.47;100.00;139264.55;106871;1254;25385;-55
2024/01/13 10:50:39;;;;;;;38.80;19.20;;;;;;;-12.50;100.00;139255.97;106899;1275;25432;-57
2024/01/13 10:53:28;;;;;;;32.70;18.30;;;;;;;-12.51;100.00;139254.28;106961;1275;25347;-57
2024/01/13 10:56:14;;;;;;;35.80;19.20;;;;;;;-12.50;100.00;139256.22;106939;1257;25335;-56
2024/01/13 10:59:02;;;;;;;34.90;18.20;;;;;;;-12.52;100.00;139252.78;106894;1265;25353;-57
2024/01/13 11:01:48;;;;;;;46.00;21.10;;;;;;;-12.77;100.00;139191.16;106943;1263;25363;-56
2024/01/13 11:04:34;;;;;;;38.70;20.10;;;;;;;-13.12;100.00;139108.66;107322;1266;25363;-56
2024/01/13 11:07:21;;;;;;;39.00;20.30;;;;;;;-13.22;100.00;139084.59;106951;1264;25424;-58
2024/01/13 11:10:15;;;;;;;35.30;17.70;;;;;;;-13.29;100.00;139067.47;106981;1260;25379;-58
2024/01/13 11:13:10;;;;;;;35.90;19.40;;;;;;;-13.28;100.00;139070.41;106994;1257;25347;-58
2024/01/13 11:16:06;;;;;;;33.10;17.80;;;;;;;-13.31;100.00;139063.03;106963;1256;25375;-56
2024/01/13 11:18:54;;;;;;;33.20;17.50;;;;;;;-13.43;100.00;139035.05;106978;1256;25354;-59
2024/01/13 11:21:47;;;;;;;38.80;20.00;;;;;;;-13.63;100.00;138985.00;106986;1266;25363;-58
2024/01/13 11:24:33;;;;;;;36.80;19.30;;;;;;;-13.89;100.00;138922.95;106992;1275;25481;-58
2024/01/13 11:27:21;;;;;;;39.10;21.20;;;;;;;-14.28;100.00;138830.72;106787;1275;25521;-58
2024/01/13 11:30:11;;;;;;;42.40;21.20;;;;;;;-14.50;100.00;138776.34;107037;1258;25353;-58
2024/01/13 11:32:57;;;;;;;36.90;19.80;;;;;;;-14.48;100.00;138781.97;106960;1263;25333;-56
2024/01/13 11:35:45;;;;;;;41.80;19.60;;;;;;;-14.45;100.00;138790.28;106971;1257;25587;-56
2024/01/13 11:38:32;;;;;;;42.50;20.20;;;;;;;-14.40;100.00;138801.58;106985;1275;25420;-57
2024/01/13 11:41:18;;;;;;;40.40;19.90;;;;;;;-14.23;100.00;138841.53;107005;1266;25356;-58
2024/01/13 11:44:41;;;;;;;41.10;21.20;;;;;;;-14.11;100.00;138869.72;107043;1266;25347;-54
2024/01/13 11:47:29;;;;;;;34.00;18.70;;;;;;;-14.03;100.00;138889.59;106968;1260;25531;-57
2024/01/13 11:50:36;;;;;;;37.60;19.30;;;;;;;-14.07;100.00;138880.78;106996;1263;25414;-57
2024/01/13 11:53:39;;;;;;;32.10;17.40;;;;;;;-14.07;100.00;138879.78;107108;1264;25424;-57
2024/01/13 11:56:26;;;;;;;33.10;18.10;;;;;;;-14.10;100.00;138872.91;107136;1257;25385;-60
2024/01/13 11:59:12;;;;;;;37.50;19.50;;;;;;;-14.14;100.00;138863.09;107159;1254;25955;-60
2024/01/13 12:01:59;;;;;;;38.60;19.50;;;;;;;-14.12;100.00;138869.23;107295;1266;25416;-57
2024/01/13 12:04:49;;;;;;;37.60;19.00;;;;;;;-14.14;100.00;138862.11;107219;1275;25375;-58
2024/01/13 12:07:35;;;;;;;33.40;17.80;;;;;;;-14.15;100.00;138860.91;107085;1263;25365;-64
2024/01/13 12:10:21;;;;;;;32.20;17.80;;;;;;;-14.28;100.00;138829.77;107120;1264;25488;-54
2024/01/13 12:13:17;;;;;;;36.50;19.90;;;;;;;-14.26;100.00;138834.17;107082;1275;25588;-61
2024/01/13 12:16:04;;;;;;;34.20;19.00;;;;;;;-14.14;100.00;138863.11;107111;1258;25347;-57